sensor_id;sensor_type;location;lat;lon;timestamp;P1;durP1;ratioP1;P2;durP2;ratioP2
10731;SDS011;5417;42.686;23.244;2022-10-03T00:01:36;2.70;;;2.53;;
10731;SDS011;5417;42.686;23.244;2022-10-03T00:04:17;2.40;;;2.30;;
10731;SDS011;5417;42.686;23.244;2022-10-03T00:06:59;2.20;;;2.10;;
10731;SDS011;5417;42.686;23.244;2022-10-03T00:09:44;2.20;;;2.10;;
10731;SDS011;5417;42.686;23.244;2022-10-03T00:12:35;2.30;;;2.20;;
10731;SDS011;5417;42.686;23.244;2022-10-03T00:15:15;2.57;;;2.13;;
10731;SDS011;5417;42.686;23.244;2022-10-03T00:17:49;2.57;;;2.37;;
10731;SDS011;5417;42.686;23.244;2022-10-03T00:20:33;2.90;;;2.70;;
10731;SDS011;5417;42.686;23.244;2022-10-03T00:23:11;2.87;;;2.67;;
10731;SDS011;5417;42.686;23.244;2022-10-03T00:25:45;3.00;;;2.50;;
10731;SDS011;5417;42.686;23.244;2022-10-03T00:28:23;2.70;;;2.53;;
10731;SDS011;5417;42.686;23.244;2022-10-03T00:31:11;2.47;;;2.37;;
10731;SDS011;5417;42.686;23.244;2022-10-03T00:33:44;2.33;;;2.23;;
10731;SDS011;5417;42.686;23.244;2022-10-03T00:36:27;2.30;;;2.20;;
10731;SDS011;5417;42.686;23.244;2022-10-03T00:39:09;2.90;;;2.77;;
10731;SDS011;5417;42.686;23.244;2022-10-03T00:48:02;2.53;;;2.33;;
10731;SDS011;5417;42.686;23.244;2022-10-03T00:50:43;3.13;;;2.50;;
10731;SDS011;5417;42.686;23.244;2022-10-03T00:53:50;2.53;;;2.43;;
10731;SDS011;5417;42.686;23.244;2022-10-03T00:56:35;2.80;;;2.60;;
10731;SDS011;5417;42.686;23.244;2022-10-03T00:59:17;3.63;;;2.50;;
10731;SDS011;5417;42.686;23.244;2022-10-03T01:01:57;2.50;;;2.40;;
10731;SDS011;5417;42.686;23.244;2022-10-03T01:04:46;2.57;;;2.37;;
10731;SDS011;5417;42.686;23.244;2022-10-03T01:07:34;2.60;;;2.50;;
10731;SDS011;5417;42.686;23.244;2022-10-03T01:10:29;2.83;;;2.50;;
10731;SDS011;5417;42.686;23.244;2022-10-03T01:13:11;2.37;;;2.23;;
10731;SDS011;5417;42.686;23.244;2022-10-03T01:15:49;2.73;;;2.50;;
10731;SDS011;5417;42.686;23.244;2022-10-03T01:18:23;2.60;;;2.40;;
10731;SDS011;5417;42.686;23.244;2022-10-03T01:21:04;2.80;;;2.50;;
10731;SDS011;5417;42.686;23.244;2022-10-03T01:23:43;2.67;;;2.47;;
10731;SDS011;5417;42.686;23.244;2022-10-03T01:26:53;2.90;;;2.70;;
10731;SDS011;5417;42.686;23.244;2022-10-03T01:29:28;4.67;;;2.77;;
10731;SDS011;5417;42.686;23.244;2022-10-03T01:32:22;3.17;;;2.87;;
10731;SDS011;5417;42.686;23.244;2022-10-03T01:34:58;4.13;;;3.33;;
10731;SDS011;5417;42.686;23.244;2022-10-03T01:37:37;3.40;;;3.20;;
10731;SDS011;5417;42.686;23.244;2022-10-03T01:40:12;2.87;;;2.57;;
10731;SDS011;5417;42.686;23.244;2022-10-03T01:42:53;3.00;;;2.50;;
10731;SDS011;5417;42.686;23.244;2022-10-03T01:45:29;3.00;;;2.80;;
10731;SDS011;5417;42.686;23.244;2022-10-03T01:48:03;3.50;;;3.00;;
10731;SDS011;5417;42.686;23.244;2022-10-03T01:50:42;2.83;;;2.63;;
10731;SDS011;5417;42.686;23.244;2022-10-03T01:53:22;4.13;;;2.77;;
10731;SDS011;5417;42.686;23.244;2022-10-03T01:55:58;3.80;;;2.70;;
10731;SDS011;5417;42.686;23.244;2022-10-03T01:58:33;3.83;;;3.00;;
10731;SDS011;5417;42.686;23.244;2022-10-03T02:01:13;3.97;;;2.63;;
10731;SDS011;5417;42.686;23.244;2022-10-03T02:03:47;3.10;;;2.60;;
10731;SDS011;5417;42.686;23.244;2022-10-03T02:06:23;4.30;;;2.40;;
10731;SDS011;5417;42.686;23.244;2022-10-03T02:09:00;2.80;;;2.60;;
10731;SDS011;5417;42.686;23.244;2022-10-03T02:11:34;3.33;;;3.03;;
10731;SDS011;5417;42.686;23.244;2022-10-03T02:14:06;4.23;;;2.73;;
10731;SDS011;5417;42.686;23.244;2022-10-03T02:16:52;4.77;;;4.23;;
10731;SDS011;5417;42.686;23.244;2022-10-03T02:19:26;2.30;;;2.20;;
10731;SDS011;5417;42.686;23.244;2022-10-03T02:21:56;2.83;;;2.60;;
10731;SDS011;5417;42.686;23.244;2022-10-03T02:24:30;2.93;;;2.60;;
10731;SDS011;5417;42.686;23.244;2022-10-03T02:27:12;2.73;;;2.53;;
10731;SDS011;5417;42.686;23.244;2022-10-03T02:30:17;2.50;;;2.30;;
10731;SDS011;5417;42.686;23.244;2022-10-03T02:33:09;2.33;;;2.23;;
10731;SDS011;5417;42.686;23.244;2022-10-03T02:35:54;5.33;;;4.83;;
10731;SDS011;5417;42.686;23.244;2022-10-03T02:45:23;2.30;;;2.20;;
10731;SDS011;5417;42.686;23.244;2022-10-03T03:00:33;2.40;;;2.30;;
10731;SDS011;5417;42.686;23.244;2022-10-03T03:03:30;3.07;;;2.83;;
10731;SDS011;5417;42.686;23.244;2022-10-03T03:06:24;2.93;;;2.67;;
10731;SDS011;5417;42.686;23.244;2022-10-03T03:15:27;3.60;;;3.30;;
10731;SDS011;5417;42.686;23.244;2022-10-03T03:18:21;2.63;;;2.53;;
10731;SDS011;5417;42.686;23.244;2022-10-03T03:21:09;3.50;;;2.93;;
10731;SDS011;5417;42.686;23.244;2022-10-03T03:26:40;2.63;;;2.43;;
10731;SDS011;5417;42.686;23.244;2022-10-03T03:29:20;3.10;;;2.90;;
10731;SDS011;5417;42.686;23.244;2022-10-03T03:32:03;2.90;;;2.53;;
10731;SDS011;5417;42.686;23.244;2022-10-03T03:34:40;4.47;;;3.47;;
10731;SDS011;5417;42.686;23.244;2022-10-03T03:37:16;3.10;;;2.87;;
10731;SDS011;5417;42.686;23.244;2022-10-03T03:39:55;3.23;;;3.03;;
10731;SDS011;5417;42.686;23.244;2022-10-03T03:42:39;3.50;;;3.20;;
10731;SDS011;5417;42.686;23.244;2022-10-03T03:45:24;4.87;;;2.87;;
10731;SDS011;5417;42.686;23.244;2022-10-03T03:48:22;4.17;;;3.20;;
10731;SDS011;5417;42.686;23.244;2022-10-03T03:51:09;4.77;;;3.60;;
10731;SDS011;5417;42.686;23.244;2022-10-03T03:53:55;6.80;;;3.23;;
10731;SDS011;5417;42.686;23.244;2022-10-03T03:56:56;5.87;;;3.47;;
10731;SDS011;5417;42.686;23.244;2022-10-03T03:59:37;3.87;;;3.27;;
10731;SDS011;5417;42.686;23.244;2022-10-03T04:02:13;3.97;;;3.20;;
10731;SDS011;5417;42.686;23.244;2022-10-03T04:04:55;4.13;;;3.63;;
10731;SDS011;5417;42.686;23.244;2022-10-03T04:07:34;4.43;;;3.40;;
10731;SDS011;5417;42.686;23.244;2022-10-03T04:10:24;5.10;;;4.30;;
10731;SDS011;5417;42.686;23.244;2022-10-03T04:16:09;3.30;;;3.10;;
10731;SDS011;5417;42.686;23.244;2022-10-03T04:19:09;3.03;;;2.83;;
10731;SDS011;5417;42.686;23.244;2022-10-03T04:21:50;6.13;;;3.40;;
10731;SDS011;5417;42.686;23.244;2022-10-03T04:24:43;3.67;;;3.43;;
10731;SDS011;5417;42.686;23.244;2022-10-03T04:27:43;4.27;;;3.40;;
10731;SDS011;5417;42.686;23.244;2022-10-03T04:30:26;3.87;;;3.40;;
10731;SDS011;5417;42.686;23.244;2022-10-03T04:33:06;5.77;;;3.70;;
10731;SDS011;5417;42.686;23.244;2022-10-03T04:35:55;3.47;;;3.27;;
10731;SDS011;5417;42.686;23.244;2022-10-03T04:38:44;5.10;;;3.90;;
10731;SDS011;5417;42.686;23.244;2022-10-03T04:41:24;5.17;;;3.77;;
10731;SDS011;5417;42.686;23.244;2022-10-03T04:44:01;6.03;;;3.90;;
10731;SDS011;5417;42.686;23.244;2022-10-03T04:46:38;4.50;;;3.87;;
10731;SDS011;5417;42.686;23.244;2022-10-03T04:49:13;4.17;;;3.67;;
10731;SDS011;5417;42.686;23.244;2022-10-03T04:51:49;4.33;;;4.03;;
10731;SDS011;5417;42.686;23.244;2022-10-03T04:54:26;7.10;;;3.50;;
10731;SDS011;5417;42.686;23.244;2022-10-03T04:57:03;6.37;;;4.10;;
10731;SDS011;5417;42.686;23.244;2022-10-03T04:59:42;4.47;;;4.10;;
10731;SDS011;5417;42.686;23.244;2022-10-03T05:02:17;5.77;;;3.77;;
10731;SDS011;5417;42.686;23.244;2022-10-03T05:04:57;4.53;;;3.40;;
10731;SDS011;5417;42.686;23.244;2022-10-03T05:07:41;4.03;;;3.50;;
10731;SDS011;5417;42.686;23.244;2022-10-03T05:13:07;8.43;;;5.57;;
10731;SDS011;5417;42.686;23.244;2022-10-03T05:15:41;10.47;;;6.63;;
10731;SDS011;5417;42.686;23.244;2022-10-03T05:18:20;12.07;;;7.03;;
10731;SDS011;5417;42.686;23.244;2022-10-03T05:20:54;11.60;;;7.07;;
10731;SDS011;5417;42.686;23.244;2022-10-03T05:23:32;12.00;;;6.40;;
10731;SDS011;5417;42.686;23.244;2022-10-03T05:26:10;6.37;;;5.57;;
10731;SDS011;5417;42.686;23.244;2022-10-03T05:28:47;8.27;;;5.20;;
10731;SDS011;5417;42.686;23.244;2022-10-03T05:31:33;7.30;;;4.77;;
10731;SDS011;5417;42.686;23.244;2022-10-03T05:34:11;5.13;;;4.50;;
10731;SDS011;5417;42.686;23.244;2022-10-03T05:36:53;10.07;;;5.53;;
10731;SDS011;5417;42.686;23.244;2022-10-03T05:39:35;8.87;;;5.87;;
10731;SDS011;5417;42.686;23.244;2022-10-03T05:42:17;6.07;;;5.50;;
10731;SDS011;5417;42.686;23.244;2022-10-03T05:45:01;7.43;;;4.30;;
10731;SDS011;5417;42.686;23.244;2022-10-03T05:47:31;8.40;;;4.87;;
10731;SDS011;5417;42.686;23.244;2022-10-03T05:50:20;6.77;;;4.70;;
10731;SDS011;5417;42.686;23.244;2022-10-03T05:53:01;6.67;;;5.03;;
10731;SDS011;5417;42.686;23.244;2022-10-03T05:55:44;5.87;;;5.20;;
10731;SDS011;5417;42.686;23.244;2022-10-03T05:58:32;6.07;;;5.33;;
10731;SDS011;5417;42.686;23.244;2022-10-03T06:01:22;5.83;;;5.03;;
10731;SDS011;5417;42.686;23.244;2022-10-03T06:04:15;5.53;;;5.03;;
10731;SDS011;5417;42.686;23.244;2022-10-03T06:07:08;6.50;;;5.67;;
10731;SDS011;5417;42.686;23.244;2022-10-03T06:09:53;9.80;;;5.57;;
10731;SDS011;5417;42.686;23.244;2022-10-03T06:12:53;10.70;;;5.20;;
10731;SDS011;5417;42.686;23.244;2022-10-03T06:15:33;7.27;;;5.13;;
10731;SDS011;5417;42.686;23.244;2022-10-03T06:18:32;7.57;;;5.20;;
10731;SDS011;5417;42.686;23.244;2022-10-03T06:21:28;8.63;;;4.80;;
10731;SDS011;5417;42.686;23.244;2022-10-03T06:27:28;5.90;;;5.37;;
10731;SDS011;5417;42.686;23.244;2022-10-03T06:30:19;6.47;;;5.60;;
10731;SDS011;5417;42.686;23.244;2022-10-03T06:36:20;5.80;;;5.30;;
10731;SDS011;5417;42.686;23.244;2022-10-03T06:45:09;7.27;;;6.67;;
10731;SDS011;5417;42.686;23.244;2022-10-03T06:48:12;10.13;;;6.83;;
10731;SDS011;5417;42.686;23.244;2022-10-03T06:50:53;13.63;;;6.63;;
10731;SDS011;5417;42.686;23.244;2022-10-03T06:53:49;8.37;;;5.80;;
10731;SDS011;5417;42.686;23.244;2022-10-03T06:56:38;6.43;;;4.70;;
10731;SDS011;5417;42.686;23.244;2022-10-03T06:59:17;7.73;;;5.10;;
10731;SDS011;5417;42.686;23.244;2022-10-03T07:02:04;7.27;;;5.20;;
10731;SDS011;5417;42.686;23.244;2022-10-03T07:05:02;5.43;;;4.60;;
10731;SDS011;5417;42.686;23.244;2022-10-03T07:08:12;4.80;;;3.63;;
10731;SDS011;5417;42.686;23.244;2022-10-03T07:14:19;17.00;;;15.53;;
10731;SDS011;5417;42.686;23.244;2022-10-03T07:20:20;9.90;;;7.70;;
10731;SDS011;5417;42.686;23.244;2022-10-03T07:23:25;7.67;;;6.97;;
10731;SDS011;5417;42.686;23.244;2022-10-03T07:29:47;6.33;;;5.50;;
10731;SDS011;5417;42.686;23.244;2022-10-03T07:32:28;5.83;;;4.70;;
10731;SDS011;5417;42.686;23.244;2022-10-03T07:35:25;7.03;;;6.07;;
10731;SDS011;5417;42.686;23.244;2022-10-03T07:38:30;6.67;;;6.00;;
10731;SDS011;5417;42.686;23.244;2022-10-03T07:41:29;4.13;;;3.83;;
10731;SDS011;5417;42.686;23.244;2022-10-03T07:44:44;4.30;;;3.80;;
10731;SDS011;5417;42.686;23.244;2022-10-03T07:51:14;4.40;;;3.13;;
10731;SDS011;5417;42.686;23.244;2022-10-03T07:59:54;3.77;;;3.53;;
10731;SDS011;5417;42.686;23.244;2022-10-03T08:02:39;4.60;;;3.60;;
10731;SDS011;5417;42.686;23.244;2022-10-03T08:05:21;3.43;;;3.07;;
10731;SDS011;5417;42.686;23.244;2022-10-03T08:08:04;5.90;;;3.30;;
10731;SDS011;5417;42.686;23.244;2022-10-03T08:10:54;3.83;;;3.40;;
10731;SDS011;5417;42.686;23.244;2022-10-03T08:13:34;3.37;;;2.77;;
10731;SDS011;5417;42.686;23.244;2022-10-03T08:16:19;6.13;;;3.17;;
10731;SDS011;5417;42.686;23.244;2022-10-03T08:19:01;3.40;;;2.70;;
10731;SDS011;5417;42.686;23.244;2022-10-03T08:21:43;3.90;;;2.87;;
10731;SDS011;5417;42.686;23.244;2022-10-03T08:24:26;3.23;;;2.93;;
10731;SDS011;5417;42.686;23.244;2022-10-03T08:27:12;3.50;;;2.80;;
10731;SDS011;5417;42.686;23.244;2022-10-03T08:32:56;3.50;;;2.07;;
10731;SDS011;5417;42.686;23.244;2022-10-03T08:35:35;3.47;;;2.70;;
10731;SDS011;5417;42.686;23.244;2022-10-03T08:44:50;2.50;;;2.37;;
10731;SDS011;5417;42.686;23.244;2022-10-03T08:54:14;3.13;;;1.50;;
10731;SDS011;5417;42.686;23.244;2022-10-03T08:57:11;2.50;;;1.73;;
10731;SDS011;5417;42.686;23.244;2022-10-03T09:00:01;2.17;;;1.70;;
10731;SDS011;5417;42.686;23.244;2022-10-03T09:09:04;2.40;;;2.13;;
10731;SDS011;5417;42.686;23.244;2022-10-03T09:11:59;2.35;;;1.83;;
10731;SDS011;5417;42.686;23.244;2022-10-03T09:18:04;2.40;;;2.20;;
10731;SDS011;5417;42.686;23.244;2022-10-03T09:21:07;1.90;;;1.80;;
10731;SDS011;5417;42.686;23.244;2022-10-03T09:23:58;2.20;;;1.97;;
10731;SDS011;5417;42.686;23.244;2022-10-03T09:26:57;2.47;;;2.23;;
10731;SDS011;5417;42.686;23.244;2022-10-03T09:33:01;4.33;;;1.83;;
10731;SDS011;5417;42.686;23.244;2022-10-03T09:35:58;2.33;;;2.20;;
10731;SDS011;5417;42.686;23.244;2022-10-03T09:38:45;1.97;;;1.87;;
10731;SDS011;5417;42.686;23.244;2022-10-03T09:44:53;2.30;;;2.20;;
10731;SDS011;5417;42.686;23.244;2022-10-03T09:47:54;2.60;;;1.97;;
10731;SDS011;5417;42.686;23.244;2022-10-03T09:50:46;2.30;;;2.07;;
10731;SDS011;5417;42.686;23.244;2022-10-03T09:53:33;2.57;;;2.37;;
10731;SDS011;5417;42.686;23.244;2022-10-03T09:56:31;2.60;;;2.50;;
10731;SDS011;5417;42.686;23.244;2022-10-03T09:59:18;2.40;;;2.30;;
10731;SDS011;5417;42.686;23.244;2022-10-03T10:02:04;2.13;;;2.03;;
10731;SDS011;5417;42.686;23.244;2022-10-03T10:05:01;2.20;;;2.10;;
10731;SDS011;5417;42.686;23.244;2022-10-03T10:08:09;2.40;;;2.30;;
10731;SDS011;5417;42.686;23.244;2022-10-03T10:11:00;2.20;;;2.10;;
10731;SDS011;5417;42.686;23.244;2022-10-03T10:13:54;2.00;;;1.90;;
10731;SDS011;5417;42.686;23.244;2022-10-03T10:19:46;2.00;;;1.90;;
10731;SDS011;5417;42.686;23.244;2022-10-03T10:22:23;1.93;;;1.83;;
10731;SDS011;5417;42.686;23.244;2022-10-03T10:25:31;1.93;;;1.60;;
10731;SDS011;5417;42.686;23.244;2022-10-03T10:34:48;1.30;;;1.30;;
10731;SDS011;5417;42.686;23.244;2022-10-03T10:44:09;1.50;;;1.50;;
10731;SDS011;5417;42.686;23.244;2022-10-03T10:47:09;1.57;;;1.43;;
10731;SDS011;5417;42.686;23.244;2022-10-03T10:49:51;1.30;;;1.30;;
10731;SDS011;5417;42.686;23.244;2022-10-03T10:52:46;2.07;;;1.37;;
10731;SDS011;5417;42.686;23.244;2022-10-03T10:55:43;1.57;;;1.50;;
10731;SDS011;5417;42.686;23.244;2022-10-03T11:11:01;1.60;;;1.50;;
10731;SDS011;5417;42.686;23.244;2022-10-03T11:14:01;2.00;;;1.90;;
10731;SDS011;5417;42.686;23.244;2022-10-03T11:23:19;2.97;;;2.77;;
10731;SDS011;5417;42.686;23.244;2022-10-03T11:32:50;3.07;;;2.97;;
10731;SDS011;5417;42.686;23.244;2022-10-03T11:39:12;2.97;;;2.77;;
10731;SDS011;5417;42.686;23.244;2022-10-03T11:41:49;3.80;;;3.50;;
10731;SDS011;5417;42.686;23.244;2022-10-03T11:44:24;3.20;;;3.00;;
10731;SDS011;5417;42.686;23.244;2022-10-03T11:47:03;3.40;;;3.20;;
10731;SDS011;5417;42.686;23.244;2022-10-03T11:52:55;3.20;;;2.90;;
10731;SDS011;5417;42.686;23.244;2022-10-03T11:55:36;2.90;;;2.80;;
10731;SDS011;5417;42.686;23.244;2022-10-03T11:58:20;3.00;;;2.87;;
10731;SDS011;5417;42.686;23.244;2022-10-03T12:00:58;3.60;;;3.40;;
10731;SDS011;5417;42.686;23.244;2022-10-03T12:03:43;3.67;;;3.47;;
10731;SDS011;5417;42.686;23.244;2022-10-03T12:06:22;3.83;;;3.53;;
10731;SDS011;5417;42.686;23.244;2022-10-03T12:09:24;6.47;;;3.53;;
10731;SDS011;5417;42.686;23.244;2022-10-03T12:12:04;4.13;;;3.70;;
10731;SDS011;5417;42.686;23.244;2022-10-03T12:14:39;4.20;;;4.00;;
10731;SDS011;5417;42.686;23.244;2022-10-03T12:17:11;3.67;;;3.37;;
10731;SDS011;5417;42.686;23.244;2022-10-03T12:19:44;3.60;;;3.40;;
10731;SDS011;5417;42.686;23.244;2022-10-03T12:22:24;3.80;;;3.60;;
10731;SDS011;5417;42.686;23.244;2022-10-03T12:25:12;3.83;;;3.53;;
10731;SDS011;5417;42.686;23.244;2022-10-03T12:27:57;3.50;;;3.33;;
10731;SDS011;5417;42.686;23.244;2022-10-03T12:30:33;3.17;;;2.97;;
10731;SDS011;5417;42.686;23.244;2022-10-03T12:36:08;2.80;;;2.70;;
10731;SDS011;5417;42.686;23.244;2022-10-03T12:38:42;3.63;;;3.37;;
10731;SDS011;5417;42.686;23.244;2022-10-03T12:41:21;3.17;;;3.07;;
10731;SDS011;5417;42.686;23.244;2022-10-03T12:44:06;3.50;;;3.40;;
10731;SDS011;5417;42.686;23.244;2022-10-03T12:46:46;3.93;;;3.73;;
10731;SDS011;5417;42.686;23.244;2022-10-03T12:49:24;4.10;;;3.90;;
10731;SDS011;5417;42.686;23.244;2022-10-03T12:52:05;7.83;;;7.33;;
10731;SDS011;5417;42.686;23.244;2022-10-03T12:54:44;4.27;;;4.07;;
10731;SDS011;5417;42.686;23.244;2022-10-03T13:00:17;4.00;;;3.80;;
10731;SDS011;5417;42.686;23.244;2022-10-03T13:02:53;4.07;;;3.87;;
10731;SDS011;5417;42.686;23.244;2022-10-03T13:05:36;4.00;;;3.70;;
10731;SDS011;5417;42.686;23.244;2022-10-03T13:08:21;4.10;;;3.80;;
10731;SDS011;5417;42.686;23.244;2022-10-03T13:11:09;4.10;;;3.90;;
10731;SDS011;5417;42.686;23.244;2022-10-03T13:13:55;3.87;;;3.67;;
10731;SDS011;5417;42.686;23.244;2022-10-03T13:16:43;3.53;;;3.30;;
10731;SDS011;5417;42.686;23.244;2022-10-03T13:19:23;3.47;;;3.27;;
10731;SDS011;5417;42.686;23.244;2022-10-03T13:21:55;4.10;;;3.90;;
10731;SDS011;5417;42.686;23.244;2022-10-03T13:24:39;3.50;;;3.40;;
10731;SDS011;5417;42.686;23.244;2022-10-03T13:27:23;3.50;;;3.23;;
10731;SDS011;5417;42.686;23.244;2022-10-03T13:29:59;3.83;;;3.63;;
10731;SDS011;5417;42.686;23.244;2022-10-03T13:32:32;3.97;;;3.67;;
10731;SDS011;5417;42.686;23.244;2022-10-03T13:35:06;3.47;;;3.23;;
10731;SDS011;5417;42.686;23.244;2022-10-03T13:38:03;3.10;;;3.00;;
10731;SDS011;5417;42.686;23.244;2022-10-03T13:40:41;3.20;;;3.10;;
10731;SDS011;5417;42.686;23.244;2022-10-03T13:43:15;2.80;;;2.70;;
10731;SDS011;5417;42.686;23.244;2022-10-03T13:45:49;3.47;;;3.17;;
10731;SDS011;5417;42.686;23.244;2022-10-03T13:48:22;2.93;;;2.73;;
10731;SDS011;5417;42.686;23.244;2022-10-03T13:50:53;3.60;;;3.50;;
10731;SDS011;5417;42.686;23.244;2022-10-03T13:53:34;3.63;;;3.43;;
10731;SDS011;5417;42.686;23.244;2022-10-03T13:56:14;3.57;;;3.37;;
10731;SDS011;5417;42.686;23.244;2022-10-03T13:58:51;4.17;;;3.97;;
10731;SDS011;5417;42.686;23.244;2022-10-03T14:01:29;3.03;;;2.93;;
10731;SDS011;5417;42.686;23.244;2022-10-03T14:07:13;3.03;;;2.93;;
10731;SDS011;5417;42.686;23.244;2022-10-03T14:12:58;3.30;;;3.00;;
10731;SDS011;5417;42.686;23.244;2022-10-03T14:15:46;2.67;;;2.57;;
10731;SDS011;5417;42.686;23.244;2022-10-03T14:18:26;2.50;;;2.40;;
10731;SDS011;5417;42.686;23.244;2022-10-03T14:21:15;2.80;;;2.60;;
10731;SDS011;5417;42.686;23.244;2022-10-03T14:23:55;2.27;;;2.10;;
10731;SDS011;5417;42.686;23.244;2022-10-03T14:26:31;2.17;;;2.07;;
10731;SDS011;5417;42.686;23.244;2022-10-03T14:29:02;2.27;;;2.17;;
10731;SDS011;5417;42.686;23.244;2022-10-03T14:31:34;2.57;;;2.47;;
10731;SDS011;5417;42.686;23.244;2022-10-03T14:34:07;3.30;;;3.10;;
10731;SDS011;5417;42.686;23.244;2022-10-03T14:36:47;3.30;;;3.00;;
10731;SDS011;5417;42.686;23.244;2022-10-03T14:39:21;2.67;;;2.50;;
10731;SDS011;5417;42.686;23.244;2022-10-03T14:44:52;3.47;;;2.67;;
10731;SDS011;5417;42.686;23.244;2022-10-03T14:47:21;2.70;;;2.50;;
10731;SDS011;5417;42.686;23.244;2022-10-03T14:49:49;3.00;;;2.90;;
10731;SDS011;5417;42.686;23.244;2022-10-03T14:52:23;4.20;;;2.90;;
10731;SDS011;5417;42.686;23.244;2022-10-03T14:54:55;3.00;;;2.90;;
10731;SDS011;5417;42.686;23.244;2022-10-03T14:57:27;3.27;;;3.10;;
10731;SDS011;5417;42.686;23.244;2022-10-03T14:59:57;3.37;;;3.13;;
10731;SDS011;5417;42.686;23.244;2022-10-03T15:02:26;3.90;;;3.70;;
10731;SDS011;5417;42.686;23.244;2022-10-03T15:04:56;3.53;;;3.30;;
10731;SDS011;5417;42.686;23.244;2022-10-03T15:07:34;3.30;;;3.20;;
10731;SDS011;5417;42.686;23.244;2022-10-03T15:10:05;3.40;;;3.20;;
10731;SDS011;5417;42.686;23.244;2022-10-03T15:12:35;3.60;;;3.40;;
10731;SDS011;5417;42.686;23.244;2022-10-03T15:15:07;4.00;;;3.70;;
10731;SDS011;5417;42.686;23.244;2022-10-03T15:17:42;3.47;;;3.17;;
10731;SDS011;5417;42.686;23.244;2022-10-03T15:20:11;3.63;;;3.33;;
10731;SDS011;5417;42.686;23.244;2022-10-03T15:22:40;3.67;;;3.37;;
10731;SDS011;5417;42.686;23.244;2022-10-03T15:25:15;3.50;;;3.30;;
10731;SDS011;5417;42.686;23.244;2022-10-03T15:27:45;3.00;;;2.90;;
10731;SDS011;5417;42.686;23.244;2022-10-03T15:30:20;3.10;;;2.90;;
10731;SDS011;5417;42.686;23.244;2022-10-03T15:32:49;3.27;;;3.07;;
10731;SDS011;5417;42.686;23.244;2022-10-03T15:35:22;3.37;;;3.17;;
10731;SDS011;5417;42.686;23.244;2022-10-03T15:37:52;3.10;;;3.00;;
10731;SDS011;5417;42.686;23.244;2022-10-03T15:40:24;2.53;;;2.43;;
10731;SDS011;5417;42.686;23.244;2022-10-03T15:43:01;2.83;;;2.60;;
10731;SDS011;5417;42.686;23.244;2022-10-03T15:45:32;2.70;;;2.50;;
10731;SDS011;5417;42.686;23.244;2022-10-03T15:48:01;3.00;;;2.80;;
10731;SDS011;5417;42.686;23.244;2022-10-03T15:50:33;2.83;;;2.63;;
10731;SDS011;5417;42.686;23.244;2022-10-03T15:53:06;3.00;;;2.80;;
10731;SDS011;5417;42.686;23.244;2022-10-03T15:55:39;2.70;;;2.60;;
10731;SDS011;5417;42.686;23.244;2022-10-03T15:58:13;3.70;;;3.37;;
10731;SDS011;5417;42.686;23.244;2022-10-03T16:00:43;3.13;;;2.80;;
10731;SDS011;5417;42.686;23.244;2022-10-03T16:03:18;2.77;;;2.67;;
10731;SDS011;5417;42.686;23.244;2022-10-03T16:05:55;2.50;;;2.40;;
10731;SDS011;5417;42.686;23.244;2022-10-03T16:08:30;3.20;;;2.73;;
10731;SDS011;5417;42.686;23.244;2022-10-03T16:11:03;2.77;;;2.67;;
10731;SDS011;5417;42.686;23.244;2022-10-03T16:13:35;2.87;;;2.77;;
10731;SDS011;5417;42.686;23.244;2022-10-03T16:16:09;3.47;;;3.20;;
10731;SDS011;5417;42.686;23.244;2022-10-03T16:18:56;3.43;;;3.10;;
10731;SDS011;5417;42.686;23.244;2022-10-03T16:21:43;3.47;;;2.83;;
10731;SDS011;5417;42.686;23.244;2022-10-03T16:24:20;3.03;;;2.90;;
10731;SDS011;5417;42.686;23.244;2022-10-03T16:26:58;2.60;;;2.50;;
10731;SDS011;5417;42.686;23.244;2022-10-03T16:29:33;2.90;;;2.70;;
10731;SDS011;5417;42.686;23.244;2022-10-03T16:32:03;3.63;;;3.33;;
10731;SDS011;5417;42.686;23.244;2022-10-03T16:34:32;2.90;;;2.70;;
10731;SDS011;5417;42.686;23.244;2022-10-03T16:37:01;3.70;;;2.63;;
10731;SDS011;5417;42.686;23.244;2022-10-03T16:39:33;2.70;;;2.50;;
10731;SDS011;5417;42.686;23.244;2022-10-03T16:42:07;2.90;;;2.60;;
10731;SDS011;5417;42.686;23.244;2022-10-03T16:44:38;2.93;;;2.73;;
10731;SDS011;5417;42.686;23.244;2022-10-03T16:47:14;2.80;;;2.60;;
10731;SDS011;5417;42.686;23.244;2022-10-03T16:49:46;4.40;;;3.00;;
10731;SDS011;5417;42.686;23.244;2022-10-03T16:52:38;2.20;;;2.10;;
10731;SDS011;5417;42.686;23.244;2022-10-03T16:55:13;4.27;;;2.97;;
10731;SDS011;5417;42.686;23.244;2022-10-03T16:57:43;2.57;;;2.47;;
10731;SDS011;5417;42.686;23.244;2022-10-03T17:00:14;2.77;;;2.40;;
10731;SDS011;5417;42.686;23.244;2022-10-03T17:02:46;2.60;;;2.50;;
10731;SDS011;5417;42.686;23.244;2022-10-03T17:05:13;2.73;;;2.63;;
10731;SDS011;5417;42.686;23.244;2022-10-03T17:07:42;4.27;;;3.33;;
10731;SDS011;5417;42.686;23.244;2022-10-03T17:10:22;2.30;;;2.20;;
10731;SDS011;5417;42.686;23.244;2022-10-03T17:13:00;3.17;;;2.80;;
10731;SDS011;5417;42.686;23.244;2022-10-03T17:15:32;2.00;;;1.90;;
10731;SDS011;5417;42.686;23.244;2022-10-03T17:18:05;2.20;;;2.10;;
10731;SDS011;5417;42.686;23.244;2022-10-03T17:20:41;2.73;;;2.53;;
10731;SDS011;5417;42.686;23.244;2022-10-03T17:23:15;2.93;;;2.70;;
10731;SDS011;5417;42.686;23.244;2022-10-03T17:25:56;3.00;;;2.80;;
10731;SDS011;5417;42.686;23.244;2022-10-03T17:28:30;2.60;;;2.40;;
10731;SDS011;5417;42.686;23.244;2022-10-03T17:31:04;2.47;;;2.27;;
10731;SDS011;5417;42.686;23.244;2022-10-03T17:33:34;2.33;;;2.23;;
10731;SDS011;5417;42.686;23.244;2022-10-03T17:39:10;5.80;;;5.30;;
10731;SDS011;5417;42.686;23.244;2022-10-03T17:41:48;2.67;;;2.50;;
10731;SDS011;5417;42.686;23.244;2022-10-03T17:44:22;2.40;;;2.20;;
10731;SDS011;5417;42.686;23.244;2022-10-03T17:46:59;2.10;;;2.00;;
10731;SDS011;5417;42.686;23.244;2022-10-03T17:49:36;2.17;;;2.03;;
10731;SDS011;5417;42.686;23.244;2022-10-03T17:52:13;2.43;;;2.30;;
10731;SDS011;5417;42.686;23.244;2022-10-03T17:54:43;3.17;;;2.50;;
10731;SDS011;5417;42.686;23.244;2022-10-03T17:57:17;2.27;;;2.07;;
10731;SDS011;5417;42.686;23.244;2022-10-03T17:59:51;2.60;;;2.50;;
10731;SDS011;5417;42.686;23.244;2022-10-03T18:02:24;2.10;;;2.00;;
10731;SDS011;5417;42.686;23.244;2022-10-03T18:05:00;2.50;;;2.30;;
10731;SDS011;5417;42.686;23.244;2022-10-03T18:07:33;2.53;;;2.43;;
10731;SDS011;5417;42.686;23.244;2022-10-03T18:10:02;2.37;;;2.17;;
10731;SDS011;5417;42.686;23.244;2022-10-03T18:12:33;2.87;;;2.40;;
10731;SDS011;5417;42.686;23.244;2022-10-03T18:15:14;2.30;;;2.17;;
10731;SDS011;5417;42.686;23.244;2022-10-03T18:17:56;3.10;;;2.07;;
10731;SDS011;5417;42.686;23.244;2022-10-03T18:20:35;2.20;;;2.10;;
10731;SDS011;5417;42.686;23.244;2022-10-03T18:23:09;2.53;;;2.43;;
10731;SDS011;5417;42.686;23.244;2022-10-03T18:25:48;2.50;;;2.40;;
10731;SDS011;5417;42.686;23.244;2022-10-03T18:28:27;3.80;;;2.10;;
10731;SDS011;5417;42.686;23.244;2022-10-03T18:31:01;2.53;;;1.97;;
10731;SDS011;5417;42.686;23.244;2022-10-03T18:33:31;1.80;;;1.70;;
10731;SDS011;5417;42.686;23.244;2022-10-03T18:36:13;2.20;;;2.10;;
10731;SDS011;5417;42.686;23.244;2022-10-03T18:38:44;2.13;;;1.90;;
10731;SDS011;5417;42.686;23.244;2022-10-03T18:41:13;2.10;;;1.90;;
10731;SDS011;5417;42.686;23.244;2022-10-03T18:43:44;2.13;;;2.03;;
10731;SDS011;5417;42.686;23.244;2022-10-03T18:46:23;3.73;;;2.17;;
10731;SDS011;5417;42.686;23.244;2022-10-03T18:48:59;2.57;;;2.37;;
10731;SDS011;5417;42.686;23.244;2022-10-03T18:51:30;4.23;;;2.27;;
10731;SDS011;5417;42.686;23.244;2022-10-03T18:54:01;2.13;;;1.93;;
10731;SDS011;5417;42.686;23.244;2022-10-03T18:56:32;3.70;;;2.10;;
10731;SDS011;5417;42.686;23.244;2022-10-03T18:59:12;1.90;;;1.80;;
10731;SDS011;5417;42.686;23.244;2022-10-03T19:01:47;1.73;;;1.63;;
10731;SDS011;5417;42.686;23.244;2022-10-03T19:04:18;1.70;;;1.60;;